Sea Successc\ — VRS4325 — position and weather

sailwx.info

Track history (hours):
 
Tides and Currents Weather Stations Pressure Air Temp Water Temp Dewpoint Dewpoint Depression Visibility Wind Speed Wind Dir Waves Ship Positions

Sea Successc\

Last reported at 2016-Jul-30 00:33 UTC. Time now 2016-Jul-30 01:59 UTC.
Position N 22°17' E 114°10'.

Length 27 m.

Type: Ship. MMSI: 477995071.

Date/timePositionNaut miles runAvg speedWind from/ knotsBaromVisibWave heightAir tempDewpointWater temp
2016-Jul-30 00:33N 22°17' E 114°10'0 0.0
2016-Jul-29 23:33N 22°17' E 114°10'2 1.6
2016-Jul-29 22:12N 22°17' E 114°07'0 0.0
2016-Jul-29 13:26N 22°18' E 114°07'2 1.1
2016-Jul-29 11:33N 22°17' E 114°10'2 1.6
2016-Jul-29 10:12N 22°18' E 114°07'2 3.0
2016-Jul-29 09:33N 22°18' E 114°09'0 0.5
2016-Jul-29 08:34N 22°18' E 114°09'1 0.3
2016-Jul-29 05:32N 22°17' E 114°10'0 0.0
2016-Jul-29 02:33N 22°17' E 114°10'3 1.7
2016-Jul-29 01:07N 22°17' E 114°07'3 1.6
2016-Jul-28 23:33N 22°17' E 114°10'3 2.0
2016-Jul-28 22:18N 22°18' E 114°07'1 0.1
2016-Jul-28 13:27N 22°18' E 114°07'2 1.1
2016-Jul-28 11:33N 22°17' E 114°10'3 1.9
2016-Jul-28 10:13N 22°17' E 114°07'2 3.6
2016-Jul-28 09:33N 22°17' E 114°09'0 0.4
2016-Jul-28 08:33N 22°18' E 114°09'1 0.2
2016-Jul-28 05:33N 22°17' E 114°10'0 0.0
2016-Jul-28 02:31N 22°17' E 114°10'2 1.7
2016-Jul-28 01:08N 22°17' E 114°07'2 1.5
2016-Jul-27 23:33N 22°17' E 114°10'2 1.5
2016-Jul-27 22:10N 22°18' E 114°07'0 0.0
2016-Jul-27 13:25N 22°18' E 114°07'2 1.1
2016-Jul-27 11:33N 22°17' E 114°10'2 1.6
2016-Jul-27 10:11N 22°18' E 114°07'2 2.8
2016-Jul-27 09:33N 22°18' E 114°09'0 0.2
2016-Jul-27 08:33N 22°18' E 114°09'1 0.3
2016-Jul-27 05:33N 22°17' E 114°10'0 0.0
2016-Jul-27 02:33N 22°17' E 114°10'2 1.5
2016-Jul-27 01:03N 22°17' E 114°07'2 1.5
2016-Jul-26 23:32N 22°17' E 114°10'2 1.6
2016-Jul-26 22:19N 22°18' E 114°08'1 0.1
2016-Jul-26 13:26N 22°17' E 114°07'3 1.3
2016-Jul-26 11:33N 22°17' E 114°10'3 1.9
2016-Jul-26 10:13N 22°17' E 114°07'2 3.5
2016-Jul-26 09:33N 22°19' E 114°09'1 0.8
2016-Jul-26 08:33N 22°18' E 114°09'1 0.2
2016-Jul-26 05:33N 22°17' E 114°10'0 0.0
2016-Jul-26 02:33N 22°17' E 114°10'3 1.8
2016-Jul-26 01:09N 22°17' E 114°07'3 1.6
2016-Jul-25 23:33N 22°17' E 114°10'2 1.7
2016-Jul-25 22:11N 22°17' E 114°07'0 0.0
2016-Jul-25 13:27N 22°18' E 114°07'3 1.4
2016-Jul-25 11:33N 22°17' E 114°10'2 1.4
2016-Jul-25 10:11N 22°18' E 114°08'2 2.5
2016-Jul-25 09:33N 22°18' E 114°09'0 0.3
2016-Jul-25 08:33N 22°18' E 114°09'1 0.2
2016-Jul-25 05:33N 22°17' E 114°10'0 0.0
2016-Jul-25 02:33N 22°17' E 114°10'3 1.9
2016-Jul-25 01:07N 22°18' E 114°07'3 1.7
2016-Jul-24 23:33N 22°17' E 114°10'2 1.8
2016-Jul-24 22:17N 22°17' E 114°07'1 0.1
2016-Jul-24 13:33N 22°18' E 114°08'2 1.8
2016-Jul-24 12:34N 22°17' E 114°06'3 1.4
2016-Jul-24 10:31N 22°17' E 114°10'2 1.7
2016-Jul-24 09:12N 22°18' E 114°07'2 3.4
2016-Jul-24 08:33N 22°18' E 114°10'2 1.7
2016-Jul-24 07:31N 22°17' E 114°08'2 1.7
2016-Jul-24 06:33N 22°17' E 114°09'0 0.0
2016-Jul-24 05:33N 22°17' E 114°09'2 1.4
2016-Jul-24 04:12N 22°18' E 114°07'2 3.1
2016-Jul-24 03:33N 22°17' E 114°09'2 2.4
2016-Jul-24 02:32N 22°17' E 114°07'3 2.7
2016-Jul-24 01:32N 22°19' E 114°09'1 1.0
2016-Jul-24 00:33N 22°18' E 114°09'0 0.0
2016-Jul-23 23:32N 22°18' E 114°09'3 0.3
2016-Jul-23 13:28N 22°18' E 114°06'3 1.6
2016-Jul-23 11:32N 22°17' E 114°10'3 2.0
2016-Jul-23 10:14N 22°17' E 114°07'3 1.5
2016-Jul-23 08:33N 22°17' E 114°10'0 0.0
2016-Jul-23 02:33N 22°17' E 114°10'2 1.6
2016-Jul-23 01:04N 22°18' E 114°07'2 1.6
2016-Jul-22 23:33N 22°17' E 114°10'2 1.8
2016-Jul-22 22:17N 22°17' E 114°07'0 0.0
2016-Jul-22 13:28N 22°17' E 114°07'3 1.4
2016-Jul-22 11:33N 22°17' E 114°10'3 2.0
2016-Jul-22 10:12N 22°17' E 114°07'3 3.8
2016-Jul-22 09:33N 22°18' E 114°09'0 0.1
2016-Jul-22 08:32N 22°18' E 114°09'0 0.1
2016-Jul-22 05:33N 22°17' E 114°10'0 0.0
2016-Jul-22 02:33N 22°17' E 114°10'2 1.4
2016-Jul-22 01:06N 22°18' E 114°08'2 1.3
2016-Jul-21 23:33N 22°17' E 114°10'2 1.9
2016-Jul-21 22:16N 22°17' E 114°07'0 0.0
2016-Jul-21 13:27N 22°18' E 114°07'2 1.3
2016-Jul-21 11:31N 22°17' E 114°10'2 1.9
2016-Jul-21 10:12N 22°17' E 114°07'2 3.4
2016-Jul-21 09:33N 22°18' E 114°09'0 0.2
2016-Jul-21 08:34N 22°18' E 114°09'1 0.2
2016-Jul-21 05:33N 22°17' E 114°10'0 0.0
2016-Jul-21 02:32N 22°17' E 114°10'2 1.5
2016-Jul-21 01:05N 22°18' E 114°07'2 1.4
2016-Jul-20 23:33N 22°17' E 114°10'2 1.9
2016-Jul-20 22:18N 22°18' E 114°07'0 0.0
2016-Jul-20 13:26N 22°18' E 114°07'2 1.2
2016-Jul-20 11:32N 22°17' E 114°10'2 1.7
2016-Jul-20 10:12N 22°18' E 114°07'2 3.5
2016-Jul-20 09:34N 22°17' E 114°10'1 0.6
2016-Jul-20 08:33N 22°18' E 114°09'1 0.3
2016-Jul-20 05:33N 22°17' E 114°10'0 0.0
2016-Jul-20 02:33N 22°17' E 114°10'3 1.8
2016-Jul-20 01:09N 22°17' E 114°07'  
Track history (hours):
 
Tides and Currents Weather Stations Pressure Air Temp Water Temp Dewpoint Dewpoint Depression Visibility Wind Speed Wind Dir Waves Ship Positions

Sea Successc\

Last reported at 2016-Jul-30 00:33 UTC. Time now 2016-Jul-30 01:59 UTC.
Position N 22°17' E 114°10'.

Length 27 m.

Type: Ship. MMSI: 477995071.

Date/timePositionNaut miles runAvg speedWind from/ knotsBaromVisibWave heightAir tempDewpointWater temp
2016-Jul-30 00:33N 22°17' E 114°10'0 0.0
2016-Jul-29 23:33N 22°17' E 114°10'2 1.6
2016-Jul-29 22:12N 22°17' E 114°07'0 0.0
2016-Jul-29 13:26N 22°18' E 114°07'2 1.1
2016-Jul-29 11:33N 22°17' E 114°10'2 1.6
2016-Jul-29 10:12N 22°18' E 114°07'2 3.0
2016-Jul-29 09:33N 22°18' E 114°09'0 0.5
2016-Jul-29 08:34N 22°18' E 114°09'1 0.3
2016-Jul-29 05:32N 22°17' E 114°10'0 0.0
2016-Jul-29 02:33N 22°17' E 114°10'3 1.7
2016-Jul-29 01:07N 22°17' E 114°07'3 1.6
2016-Jul-28 23:33N 22°17' E 114°10'3 2.0
2016-Jul-28 22:18N 22°18' E 114°07'1 0.1
2016-Jul-28 13:27N 22°18' E 114°07'2 1.1
2016-Jul-28 11:33N 22°17' E 114°10'3 1.9
2016-Jul-28 10:13N 22°17' E 114°07'2 3.6
2016-Jul-28 09:33N 22°17' E 114°09'0 0.4
2016-Jul-28 08:33N 22°18' E 114°09'1 0.2
2016-Jul-28 05:33N 22°17' E 114°10'0 0.0
2016-Jul-28 02:31N 22°17' E 114°10'2 1.7
2016-Jul-28 01:08N 22°17' E 114°07'2 1.5
2016-Jul-27 23:33N 22°17' E 114°10'2 1.5
2016-Jul-27 22:10N 22°18' E 114°07'0 0.0
2016-Jul-27 13:25N 22°18' E 114°07'2 1.1
2016-Jul-27 11:33N 22°17' E 114°10'2 1.6
2016-Jul-27 10:11N 22°18' E 114°07'2 2.8
2016-Jul-27 09:33N 22°18' E 114°09'0 0.2
2016-Jul-27 08:33N 22°18' E 114°09'1 0.3
2016-Jul-27 05:33N 22°17' E 114°10'0 0.0
2016-Jul-27 02:33N 22°17' E 114°10'2 1.5
2016-Jul-27 01:03N 22°17' E 114°07'2 1.5
2016-Jul-26 23:32N 22°17' E 114°10'2 1.6
2016-Jul-26 22:19N 22°18' E 114°08'1 0.1
2016-Jul-26 13:26N 22°17' E 114°07'3 1.3
2016-Jul-26 11:33N 22°17' E 114°10'3 1.9
2016-Jul-26 10:13N 22°17' E 114°07'2 3.5
2016-Jul-26 09:33N 22°19' E 114°09'1 0.8
2016-Jul-26 08:33N 22°18' E 114°09'1 0.2
2016-Jul-26 05:33N 22°17' E 114°10'0 0.0
2016-Jul-26 02:33N 22°17' E 114°10'3 1.8
2016-Jul-26 01:09N 22°17' E 114°07'3 1.6
2016-Jul-25 23:33N 22°17' E 114°10'2 1.7
2016-Jul-25 22:11N 22°17' E 114°07'0 0.0
2016-Jul-25 13:27N 22°18' E 114°07'3 1.4
2016-Jul-25 11:33N 22°17' E 114°10'2 1.4
2016-Jul-25 10:11N 22°18' E 114°08'2 2.5
2016-Jul-25 09:33N 22°18' E 114°09'0 0.3
2016-Jul-25 08:33N 22°18' E 114°09'1 0.2
2016-Jul-25 05:33N 22°17' E 114°10'0 0.0
2016-Jul-25 02:33N 22°17' E 114°10'3 1.9
2016-Jul-25 01:07N 22°18' E 114°07'3 1.7
2016-Jul-24 23:33N 22°17' E 114°10'2 1.8
2016-Jul-24 22:17N 22°17' E 114°07'1 0.1
2016-Jul-24 13:33N 22°18' E 114°08'2 1.8
2016-Jul-24 12:34N 22°17' E 114°06'3 1.4
2016-Jul-24 10:31N 22°17' E 114°10'2 1.7
2016-Jul-24 09:12N 22°18' E 114°07'2 3.4
2016-Jul-24 08:33N 22°18' E 114°10'2 1.7
2016-Jul-24 07:31N 22°17' E 114°08'2 1.7
2016-Jul-24 06:33N 22°17' E 114°09'0 0.0
2016-Jul-24 05:33N 22°17' E 114°09'2 1.4
2016-Jul-24 04:12N 22°18' E 114°07'2 3.1
2016-Jul-24 03:33N 22°17' E 114°09'2 2.4
2016-Jul-24 02:32N 22°17' E 114°07'3 2.7
2016-Jul-24 01:32N 22°19' E 114°09'1 1.0
2016-Jul-24 00:33N 22°18' E 114°09'0 0.0
2016-Jul-23 23:32N 22°18' E 114°09'3 0.3
2016-Jul-23 13:28N 22°18' E 114°06'3 1.6
2016-Jul-23 11:32N 22°17' E 114°10'3 2.0
2016-Jul-23 10:14N 22°17' E 114°07'3 1.5
2016-Jul-23 08:33N 22°17' E 114°10'0 0.0
2016-Jul-23 02:33N 22°17' E 114°10'2 1.6
2016-Jul-23 01:04N 22°18' E 114°07'2 1.6
2016-Jul-22 23:33N 22°17' E 114°10'2 1.8
2016-Jul-22 22:17N 22°17' E 114°07'0 0.0
2016-Jul-22 13:28N 22°17' E 114°07'3 1.4
2016-Jul-22 11:33N 22°17' E 114°10'3 2.0
2016-Jul-22 10:12N 22°17' E 114°07'3 3.8
2016-Jul-22 09:33N 22°18' E 114°09'0 0.1
2016-Jul-22 08:32N 22°18' E 114°09'0 0.1
2016-Jul-22 05:33N 22°17' E 114°10'0 0.0
2016-Jul-22 02:33N 22°17' E 114°10'2 1.4
2016-Jul-22 01:06N 22°18' E 114°08'2 1.3
2016-Jul-21 23:33N 22°17' E 114°10'2 1.9
2016-Jul-21 22:16N 22°17' E 114°07'0 0.0
2016-Jul-21 13:27N 22°18' E 114°07'2 1.3
2016-Jul-21 11:31N 22°17' E 114°10'2 1.9
2016-Jul-21 10:12N 22°17' E 114°07'2 3.4
2016-Jul-21 09:33N 22°18' E 114°09'0 0.2
2016-Jul-21 08:34N 22°18' E 114°09'1 0.2
2016-Jul-21 05:33N 22°17' E 114°10'0 0.0
2016-Jul-21 02:32N 22°17' E 114°10'2 1.5
2016-Jul-21 01:05N 22°18' E 114°07'2 1.4
2016-Jul-20 23:33N 22°17' E 114°10'2 1.9
2016-Jul-20 22:18N 22°18' E 114°07'0 0.0
2016-Jul-20 13:26N 22°18' E 114°07'2 1.2
2016-Jul-20 11:32N 22°17' E 114°10'2 1.7
2016-Jul-20 10:12N 22°18' E 114°07'2 3.5
2016-Jul-20 09:34N 22°17' E 114°10'1 0.6
2016-Jul-20 08:33N 22°18' E 114°09'1 0.3
2016-Jul-20 05:33N 22°17' E 114°10'0 0.0
2016-Jul-20 02:33N 22°17' E 114°10'3 1.8
2016-Jul-20 01:09N 22°17' E 114°07'  

Dump ship's entire track history